sensor_id;sensor_type;location;lat;lon;timestamp;temperature;humidity
41722;DHT22;27407;24.142;-110.310;2023-09-08T13:18:22;28.40;99.90
41722;DHT22;27407;24.142;-110.310;2023-09-08T13:20:49;28.40;99.90
41722;DHT22;27407;24.142;-110.310;2023-09-08T13:23:15;28.40;99.90
41722;DHT22;27407;24.142;-110.310;2023-09-08T13:25:41;28.40;99.90
41722;DHT22;27407;24.142;-110.310;2023-09-08T13:28:10;28.60;99.90
41722;DHT22;27407;24.142;-110.310;2023-09-08T13:30:37;28.60;99.90
41722;DHT22;27407;24.142;-110.310;2023-09-08T13:33:03;28.60;99.90
41722;DHT22;27407;24.142;-110.310;2023-09-08T13:35:30;28.50;99.90
41722;DHT22;27407;24.142;-110.310;2023-09-08T13:37:56;28.60;99.90
41722;DHT22;27407;24.142;-110.310;2023-09-08T13:40:23;28.60;99.90
41722;DHT22;27407;24.142;-110.310;2023-09-08T13:42:49;28.60;99.90
41722;DHT22;27407;24.142;-110.310;2023-09-08T13:45:16;28.60;99.90
41722;DHT22;27407;24.142;-110.310;2023-09-08T13:47:42;28.60;99.90
41722;DHT22;27407;24.142;-110.310;2023-09-08T13:50:09;28.60;99.90
41722;DHT22;27407;24.142;-110.310;2023-09-08T13:52:35;28.70;99.90
41722;DHT22;27407;24.142;-110.310;2023-09-08T13:55:02;28.70;99.90
41722;DHT22;27407;24.142;-110.310;2023-09-08T13:57:29;28.70;99.90
41722;DHT22;27407;24.142;-110.310;2023-09-08T13:59:56;28.70;99.90
41722;DHT22;27407;24.142;-110.310;2023-09-08T14:02:22;28.80;99.90
41722;DHT22;27407;24.142;-110.310;2023-09-08T14:04:49;28.90;99.90
41722;DHT22;27407;24.142;-110.310;2023-09-08T14:07:15;29.00;99.90
41722;DHT22;27407;24.142;-110.310;2023-09-08T14:09:42;29.00;99.90
41722;DHT22;27407;24.142;-110.310;2023-09-08T14:12:08;29.00;99.90
41722;DHT22;27407;24.142;-110.310;2023-09-08T14:14:35;29.10;99.90
41722;DHT22;27407;24.142;-110.310;2023-09-08T14:17:01;29.00;99.90
41722;DHT22;27407;24.142;-110.310;2023-09-08T14:19:29;29.00;99.90
41722;DHT22;27407;24.142;-110.310;2023-09-08T14:22:05;29.20;99.90
41722;DHT22;27407;24.142;-110.310;2023-09-08T14:24:32;29.10;99.90
41722;DHT22;27407;24.142;-110.310;2023-09-08T14:26:58;29.10;99.90
41722;DHT22;27407;24.142;-110.310;2023-09-08T14:29:25;29.00;99.90
41722;DHT22;27407;24.142;-110.310;2023-09-08T14:31:51;29.00;99.90
41722;DHT22;27407;24.142;-110.310;2023-09-08T14:34:18;29.20;99.90
41722;DHT22;27407;24.142;-110.310;2023-09-08T14:36:44;29.40;99.90
41722;DHT22;27407;24.142;-110.310;2023-09-08T14:39:11;29.40;99.90
41722;DHT22;27407;24.142;-110.310;2023-09-08T14:41:37;29.50;99.90
41722;DHT22;27407;24.142;-110.310;2023-09-08T14:44:04;29.60;99.90
41722;DHT22;27407;24.142;-110.310;2023-09-08T14:46:30;29.80;99.90
41722;DHT22;27407;24.142;-110.310;2023-09-08T14:48:57;29.90;99.90
41722;DHT22;27407;24.142;-110.310;2023-09-08T14:51:23;30.10;99.90
41722;DHT22;27407;24.142;-110.310;2023-09-08T14:53:50;30.20;99.90
41722;DHT22;27407;24.142;-110.310;2023-09-08T14:56:16;30.30;99.90
41722;DHT22;27407;24.142;-110.310;2023-09-08T14:58:43;30.20;99.90
41722;DHT22;27407;24.142;-110.310;2023-09-08T15:01:09;30.20;99.90
41722;DHT22;27407;24.142;-110.310;2023-09-08T15:03:38;30.20;99.90
41722;DHT22;27407;24.142;-110.310;2023-09-08T15:06:29;30.10;99.90
41722;DHT22;27407;24.142;-110.310;2023-09-08T15:08:55;30.20;99.90
41722;DHT22;27407;24.142;-110.310;2023-09-08T15:11:21;30.20;99.90
41722;DHT22;27407;24.142;-110.310;2023-09-08T15:13:48;30.20;99.90
41722;DHT22;27407;24.142;-110.310;2023-09-08T15:16:14;30.40;99.90
41722;DHT22;27407;24.142;-110.310;2023-09-08T15:18:41;30.40;99.90
41722;DHT22;27407;24.142;-110.310;2023-09-08T15:21:08;30.40;99.90
41722;DHT22;27407;24.142;-110.310;2023-09-08T15:23:35;30.40;99.90
41722;DHT22;27407;24.142;-110.310;2023-09-08T15:26:02;30.40;99.90
41722;DHT22;27407;24.142;-110.310;2023-09-08T15:28:28;30.30;99.90
41722;DHT22;27407;24.142;-110.310;2023-09-08T15:30:55;30.30;99.90
41722;DHT22;27407;24.142;-110.310;2023-09-08T15:33:41;30.30;99.90
41722;DHT22;27407;24.142;-110.310;2023-09-08T15:36:24;30.40;99.90
41722;DHT22;27407;24.142;-110.310;2023-09-08T15:38:54;30.60;99.90
41722;DHT22;27407;24.142;-110.310;2023-09-08T15:41:38;30.60;99.90
41722;DHT22;27407;24.142;-110.310;2023-09-08T15:44:05;30.90;99.90
41722;DHT22;27407;24.142;-110.310;2023-09-08T15:46:31;31.00;99.90
41722;DHT22;27407;24.142;-110.310;2023-09-08T15:49:01;31.10;99.90
41722;DHT22;27407;24.142;-110.310;2023-09-08T15:51:28;31.20;99.90
41722;DHT22;27407;24.142;-110.310;2023-09-08T15:53:54;31.00;99.90
41722;DHT22;27407;24.142;-110.310;2023-09-08T15:56:21;31.20;99.90
41722;DHT22;27407;24.142;-110.310;2023-09-08T15:58:47;31.40;99.90
41722;DHT22;27407;24.142;-110.310;2023-09-08T16:01:14;31.70;99.90
41722;DHT22;27407;24.142;-110.310;2023-09-08T16:03:44;31.70;99.90
41722;DHT22;27407;24.142;-110.310;2023-09-08T16:06:11;31.90;99.90
41722;DHT22;27407;24.142;-110.310;2023-09-08T16:08:38;31.70;99.90
41722;DHT22;27407;24.142;-110.310;2023-09-08T16:11:13;31.70;99.90
41722;DHT22;27407;24.142;-110.310;2023-09-08T16:13:40;31.70;99.90
41722;DHT22;27407;24.142;-110.310;2023-09-08T16:16:07;31.60;99.90
41722;DHT22;27407;24.142;-110.310;2023-09-08T16:18:33;31.70;99.90
41722;DHT22;27407;24.142;-110.310;2023-09-08T16:21:00;31.70;99.90
41722;DHT22;27407;24.142;-110.310;2023-09-08T16:23:27;31.70;99.90
41722;DHT22;27407;24.142;-110.310;2023-09-08T16:25:53;31.90;99.90
41722;DHT22;27407;24.142;-110.310;2023-09-08T16:28:20;32.10;99.90
41722;DHT22;27407;24.142;-110.310;2023-09-08T16:30:49;32.60;99.90
41722;DHT22;27407;24.142;-110.310;2023-09-08T16:33:15;33.00;99.90
41722;DHT22;27407;24.142;-110.310;2023-09-08T16:35:42;33.10;99.90
41722;DHT22;27407;24.142;-110.310;2023-09-08T16:38:08;33.50;99.90
41722;DHT22;27407;24.142;-110.310;2023-09-08T16:40:35;33.60;99.90
41722;DHT22;27407;24.142;-110.310;2023-09-08T16:43:22;33.40;99.90
41722;DHT22;27407;24.142;-110.310;2023-09-08T16:46:05;33.60;99.90
41722;DHT22;27407;24.142;-110.310;2023-09-08T16:48:32;33.80;99.90
41722;DHT22;27407;24.142;-110.310;2023-09-08T16:50:59;34.00;99.90
41722;DHT22;27407;24.142;-110.310;2023-09-08T16:53:25;33.80;99.90
41722;DHT22;27407;24.142;-110.310;2023-09-08T16:55:52;33.60;99.90
41722;DHT22;27407;24.142;-110.310;2023-09-08T16:58:18;34.00;99.90
41722;DHT22;27407;24.142;-110.310;2023-09-08T17:00:45;34.20;99.90
41722;DHT22;27407;24.142;-110.310;2023-09-08T17:03:11;34.50;99.90
41722;DHT22;27407;24.142;-110.310;2023-09-08T17:05:37;34.30;99.90
41722;DHT22;27407;24.142;-110.310;2023-09-08T17:08:04;34.20;99.90
41722;DHT22;27407;24.142;-110.310;2023-09-08T17:10:31;34.00;99.90
41722;DHT22;27407;24.142;-110.310;2023-09-08T17:12:57;34.30;99.90
41722;DHT22;27407;24.142;-110.310;2023-09-08T17:15:24;34.30;99.90
41722;DHT22;27407;24.142;-110.310;2023-09-08T17:17:56;34.50;99.90
41722;DHT22;27407;24.142;-110.310;2023-09-08T17:20:26;34.30;99.90
41722;DHT22;27407;24.142;-110.310;2023-09-08T17:22:54;34.70;99.90
41722;DHT22;27407;24.142;-110.310;2023-09-08T17:25:20;34.90;99.90
41722;DHT22;27407;24.142;-110.310;2023-09-08T17:27:47;35.30;99.90
41722;DHT22;27407;24.142;-110.310;2023-09-08T17:30:19;35.60;99.90
41722;DHT22;27407;24.142;-110.310;2023-09-08T17:32:45;35.80;99.90
41722;DHT22;27407;24.142;-110.310;2023-09-08T17:35:12;35.90;99.90
41722;DHT22;27407;24.142;-110.310;2023-09-08T17:37:38;35.60;99.90
41722;DHT22;27407;24.142;-110.310;2023-09-08T17:42:40;35.70;99.90
41722;DHT22;27407;24.142;-110.310;2023-09-08T17:45:07;35.80;99.90
41722;DHT22;27407;24.142;-110.310;2023-09-08T17:47:34;36.00;99.90
41722;DHT22;27407;24.142;-110.310;2023-09-08T17:50:01;36.50;99.90
41722;DHT22;27407;24.142;-110.310;2023-09-08T17:52:28;36.50;99.90
41722;DHT22;27407;24.142;-110.310;2023-09-08T17:54:54;36.60;99.90
41722;DHT22;27407;24.142;-110.310;2023-09-08T17:57:22;37.00;99.90
41722;DHT22;27407;24.142;-110.310;2023-09-08T17:59:49;37.10;99.90
41722;DHT22;27407;24.142;-110.310;2023-09-08T18:02:22;37.20;99.90
41722;DHT22;27407;24.142;-110.310;2023-09-08T18:04:50;37.90;99.90
41722;DHT22;27407;24.142;-110.310;2023-09-08T18:07:17;38.20;99.90
41722;DHT22;27407;24.142;-110.310;2023-09-08T18:09:44;38.00;99.90
41722;DHT22;27407;24.142;-110.310;2023-09-08T18:12:10;37.60;99.90
41722;DHT22;27407;24.142;-110.310;2023-09-08T18:14:37;37.30;99.90
41722;DHT22;27407;24.142;-110.310;2023-09-08T18:17:07;37.10;99.90
41722;DHT22;27407;24.142;-110.310;2023-09-08T18:19:35;36.70;99.90
41722;DHT22;27407;24.142;-110.310;2023-09-08T18:22:03;36.80;99.90
41722;DHT22;27407;24.142;-110.310;2023-09-08T18:24:30;37.60;99.90
41722;DHT22;27407;24.142;-110.310;2023-09-08T18:27:00;38.30;99.90
41722;DHT22;27407;24.142;-110.310;2023-09-08T18:29:27;38.70;99.90
41722;DHT22;27407;24.142;-110.310;2023-09-08T18:31:54;39.30;99.90
41722;DHT22;27407;24.142;-110.310;2023-09-08T18:34:21;39.00;99.90
41722;DHT22;27407;24.142;-110.310;2023-09-08T18:36:48;38.90;99.90
41722;DHT22;27407;24.142;-110.310;2023-09-08T18:39:14;39.00;99.90
41722;DHT22;27407;24.142;-110.310;2023-09-08T18:41:41;39.40;99.90
41722;DHT22;27407;24.142;-110.310;2023-09-08T18:44:08;39.80;99.90
41722;DHT22;27407;24.142;-110.310;2023-09-08T18:46:38;39.50;99.90
41722;DHT22;27407;24.142;-110.310;2023-09-08T18:49:05;39.30;99.90
41722;DHT22;27407;24.142;-110.310;2023-09-08T18:51:31;38.80;99.90
41722;DHT22;27407;24.142;-110.310;2023-09-08T18:53:58;39.40;99.90
41722;DHT22;27407;24.142;-110.310;2023-09-08T18:56:24;39.70;99.90
41722;DHT22;27407;24.142;-110.310;2023-09-08T18:58:51;40.40;99.90
41722;DHT22;27407;24.142;-110.310;2023-09-08T19:01:18;40.10;99.90
41722;DHT22;27407;24.142;-110.310;2023-09-08T19:03:55;40.00;99.90
41722;DHT22;27407;24.142;-110.310;2023-09-08T19:06:25;40.30;99.90
41722;DHT22;27407;24.142;-110.310;2023-09-08T19:08:55;40.00;99.90
41722;DHT22;27407;24.142;-110.310;2023-09-08T19:11:21;38.80;99.90
41722;DHT22;27407;24.142;-110.310;2023-09-08T19:13:48;37.90;99.90
41722;DHT22;27407;24.142;-110.310;2023-09-08T19:16:14;37.30;99.90
41722;DHT22;27407;24.142;-110.310;2023-09-08T19:18:43;36.80;99.90
41722;DHT22;27407;24.142;-110.310;2023-09-08T19:21:09;37.30;99.90
41722;DHT22;27407;24.142;-110.310;2023-09-08T19:23:36;37.80;99.90
41722;DHT22;27407;24.142;-110.310;2023-09-08T19:26:05;37.50;99.90
41722;DHT22;27407;24.142;-110.310;2023-09-08T19:28:35;37.70;99.90
41722;DHT22;27407;24.142;-110.310;2023-09-08T19:31:22;38.60;99.90
41722;DHT22;27407;24.142;-110.310;2023-09-08T19:34:01;39.50;99.90
41722;DHT22;27407;24.142;-110.310;2023-09-08T19:36:34;39.80;99.90
41722;DHT22;27407;24.142;-110.310;2023-09-08T19:39:05;39.50;99.90
41722;DHT22;27407;24.142;-110.310;2023-09-08T19:41:33;39.40;99.90
41722;DHT22;27407;24.142;-110.310;2023-09-08T19:44:03;39.20;99.90
41722;DHT22;27407;24.142;-110.310;2023-09-08T19:46:36;39.80;99.90
41722;DHT22;27407;24.142;-110.310;2023-09-08T19:49:06;39.20;99.90
41722;DHT22;27407;24.142;-110.310;2023-09-08T19:51:33;38.80;99.90
41722;DHT22;27407;24.142;-110.310;2023-09-08T19:54:00;39.10;99.90
41722;DHT22;27407;24.142;-110.310;2023-09-08T19:56:27;38.70;99.90
41722;DHT22;27407;24.142;-110.310;2023-09-08T19:58:54;38.30;99.90
41722;DHT22;27407;24.142;-110.310;2023-09-08T20:01:20;37.90;99.90
41722;DHT22;27407;24.142;-110.310;2023-09-08T20:03:47;37.50;99.90
41722;DHT22;27407;24.142;-110.310;2023-09-08T20:06:17;38.50;99.90
41722;DHT22;27407;24.142;-110.310;2023-09-08T20:08:43;38.60;99.90
41722;DHT22;27407;24.142;-110.310;2023-09-08T20:11:10;39.10;99.90
41722;DHT22;27407;24.142;-110.310;2023-09-08T20:13:36;38.60;99.90
41722;DHT22;27407;24.142;-110.310;2023-09-08T20:16:04;37.70;99.90
41722;DHT22;27407;24.142;-110.310;2023-09-08T20:18:35;38.60;99.90
41722;DHT22;27407;24.142;-110.310;2023-09-08T20:21:03;39.70;99.90
41722;DHT22;27407;24.142;-110.310;2023-09-08T20:23:33;40.10;99.90
41722;DHT22;27407;24.142;-110.310;2023-09-08T20:26:02;40.30;99.90
